Time;durP1;ratioP1;P1;durP2;ratioP2;P2;SDS_P1;SDS_P2;PMS_P1;PMS_P2;Temp;Humidity;BMP_temperature;BMP_pressure;BME280_temperature;BME280_humidity;BME280_pressure;Samples;Min_cycle;Max_cycle;Signal;HPM_P1;HPM_P2
2023/03/13 00:01:41;;;;;;;12.50;6.00;;;8.80;99.90;;;;;;5078304;28;20047;-70
2023/03/13 00:04:07;;;;;;;15.23;5.88;;;8.80;99.90;;;;;;5078354;28;20044;-70
2023/03/13 00:06:35;;;;;;;10.02;6.05;;;8.80;99.90;;;;;;5088552;28;20113;-69
2023/03/13 00:09:02;;;;;;;10.50;5.35;;;8.80;99.90;;;;;;5090801;28;20024;-69
2023/03/13 00:11:28;;;;;;;11.20;6.03;;;8.80;99.90;;;;;;5102119;28;20039;-69
2023/03/13 00:13:56;;;;;;;8.90;5.78;;;8.80;99.90;;;;;;5091339;28;20145;-69
2023/03/13 00:16:22;;;;;;;10.95;6.20;;;8.80;99.90;;;;;;5097458;28;20532;-69
2023/03/13 00:18:49;;;;;;;11.98;6.90;;;8.90;99.90;;;;;;5095774;28;20468;-70
2023/03/13 00:21:16;;;;;;;12.43;5.82;;;8.90;99.90;;;;;;5101578;28;20028;-68
2023/03/13 00:23:42;;;;;;;13.80;6.05;;;8.90;99.90;;;;;;5090694;28;20020;-69
2023/03/13 00:26:10;;;;;;;11.75;6.05;;;9.00;99.90;;;;;;5101215;28;20472;-68
2023/03/13 00:28:37;;;;;;;13.45;6.68;;;9.00;99.90;;;;;;5091864;28;20036;-69
2023/03/13 00:31:10;;;;;;;13.48;6.35;;;9.00;99.90;;;;;;5106795;28;20034;-69
2023/03/13 00:33:38;;;;;;;9.57;6.00;;;9.00;99.90;;;;;;5085719;28;20036;-69
2023/03/13 00:36:07;;;;;;;8.27;5.45;;;9.00;99.90;;;;;;5105231;28;20076;-69
2023/03/13 00:38:33;;;;;;;12.38;6.40;;;9.10;99.90;;;;;;5089457;28;20502;-69
2023/03/13 00:41:05;;;;;;;12.13;6.43;;;9.00;99.90;;;;;;5106979;28;20493;-70
2023/03/13 00:43:32;;;;;;;9.10;5.97;;;9.10;99.90;;;;;;5103101;28;20024;-69
2023/03/13 00:45:58;;;;;;;13.25;6.38;;;9.10;99.90;;;;;;5089885;28;20028;-69
2023/03/13 00:48:24;;;;;;;11.95;7.40;;;9.10;99.90;;;;;;5091782;28;20024;-70
2023/03/13 00:50:49;;;;;;;12.48;6.38;;;9.10;99.90;;;;;;5074836;28;20044;-69
2023/03/13 00:53:15;;;;;;;14.07;7.07;;;9.10;99.90;;;;;;5071633;28;20424;-69
2023/03/13 00:55:55;;;;;;;11.48;6.63;;;9.20;99.90;;;;;;5100885;28;20497;-70
2023/03/13 00:58:21;;;;;;;10.98;6.38;;;9.20;99.90;;;;;;5109738;28;20047;-70
2023/03/13 01:00:46;;;;;;;12.95;7.45;;;9.20;99.90;;;;;;5106546;28;20039;-70
2023/03/13 01:03:12;;;;;;;12.82;6.43;;;9.20;99.90;;;;;;5090624;28;20032;-70
2023/03/13 01:05:38;;;;;;;16.23;8.43;;;9.20;99.90;;;;;;5100706;28;20478;-70
2023/03/13 01:08:03;;;;;;;13.93;7.07;;;9.30;99.90;;;;;;5091647;28;20096;-70
2023/03/13 01:10:29;;;;;;;14.07;7.45;;;9.30;99.90;;;;;;5093912;28;20035;-70
2023/03/13 01:12:55;;;;;;;14.80;6.60;;;9.20;99.90;;;;;;5093840;28;20491;-70
2023/03/13 01:15:20;;;;;;;11.52;6.38;;;9.30;99.90;;;;;;5092206;28;20102;-70
2023/03/13 01:17:46;;;;;;;14.10;6.57;;;9.20;99.90;;;;;;5095458;28;20051;-70
2023/03/13 01:20:12;;;;;;;10.43;5.85;;;9.30;99.90;;;;;;5095299;28;20020;-70
2023/03/13 01:22:38;;;;;;;12.25;6.50;;;9.30;99.90;;;;;;5095414;28;20032;-70
2023/03/13 01:25:04;;;;;;;13.38;7.32;;;9.20;99.90;;;;;;5095647;28;20518;-70
2023/03/13 01:27:30;;;;;;;11.10;5.80;;;9.20;99.90;;;;;;5094012;28;20119;-70
2023/03/13 01:29:55;;;;;;;12.75;6.90;;;9.30;99.90;;;;;;5095735;28;20036;-70
2023/03/13 01:32:21;;;;;;;9.65;6.25;;;9.30;99.90;;;;;;5098918;28;20055;-70
2023/03/13 01:34:47;;;;;;;13.18;6.00;;;9.30;99.90;;;;;;5101827;28;20015;-70
2023/03/13 01:37:12;;;;;;;10.60;6.22;;;9.30;99.90;;;;;;5115867;28;20031;-70
2023/03/13 01:39:38;;;;;;;11.65;6.78;;;9.30;99.90;;;;;;5100701;28;20023;-70
2023/03/13 01:42:04;;;;;;;10.60;7.38;;;9.30;99.90;;;;;;5094877;28;20450;-69
2023/03/13 01:44:52;;;;;;;12.35;7.43;;;9.30;99.90;;;;;;5095453;28;20054;-69
2023/03/13 01:47:18;;;;;;;15.35;6.53;;;9.30;99.90;;;;;;5112454;28;20069;-69
2023/03/13 01:49:44;;;;;;;11.15;6.45;;;9.30;99.90;;;;;;5097352;28;20478;-69
2023/03/13 01:52:21;;;;;;;14.65;7.40;;;9.30;99.90;;;;;;5098730;28;20080;-69
2023/03/13 01:54:56;;;;;;;11.35;6.25;;;9.30;99.90;;;;;;5096693;28;20466;-69
2023/03/13 01:57:42;;;;;;;12.30;5.78;;;9.30;99.90;;;;;;5096702;28;20048;-70
2023/03/13 02:00:11;;;;;;;9.95;5.80;;;9.30;99.90;;;;;;5100229;28;20030;-70
2023/03/13 02:02:40;;;;;;;14.02;6.95;;;9.30;99.90;;;;;;5095784;28;20408;-70
2023/03/13 02:05:06;;;;;;;11.30;6.35;;;9.30;99.90;;;;;;5097844;28;20568;-70
2023/03/13 02:07:40;;;;;;;13.05;6.35;;;9.30;99.90;;;;;;5097178;28;20475;-69
2023/03/13 02:10:09;;;;;;;13.65;7.28;;;9.30;99.90;;;;;;5090603;28;20098;-69
2023/03/13 02:12:38;;;;;;;10.23;6.35;;;9.30;99.90;;;;;;5091281;28;20036;-69
2023/03/13 02:15:12;;;;;;;14.05;7.10;;;9.30;99.90;;;;;;5090331;28;20275;-69
2023/03/13 02:17:39;;;;;;;12.48;6.72;;;9.30;99.90;;;;;;5091698;28;20084;-69
2023/03/13 02:20:06;;;;;;;11.93;6.22;;;9.20;99.90;;;;;;5092686;28;20028;-70
2023/03/13 02:22:44;;;;;;;14.25;6.95;;;9.30;99.90;;;;;;5114275;28;20020;-70
2023/03/13 02:25:22;;;;;;;10.95;6.40;;;9.30;99.90;;;;;;5100502;28;20092;-70
2023/03/13 02:27:50;;;;;;;11.48;6.25;;;9.30;99.90;;;;;;5093453;28;20380;-70
2023/03/13 02:30:15;;;;;;;14.05;7.65;;;9.30;99.90;;;;;;5081022;28;20119;-69
2023/03/13 02:32:42;;;;;;;13.82;6.68;;;9.30;99.90;;;;;;5094428;28;20249;-68
2023/03/13 02:35:12;;;;;;;10.63;6.10;;;9.30;99.90;;;;;;5112321;28;20027;-69
2023/03/13 02:37:40;;;;;;;11.07;6.05;;;9.30;99.90;;;;;;5095642;28;20039;-69
2023/03/13 02:40:11;;;;;;;10.05;5.72;;;9.30;99.90;;;;;;5094713;28;20495;-69
2023/03/13 02:42:39;;;;;;;9.27;5.70;;;9.30;99.90;;;;;;5113853;28;20032;-69
2023/03/13 02:45:05;;;;;;;12.90;5.97;;;9.30;99.90;;;;;;5109237;28;20052;-69
2023/03/13 02:47:31;;;;;;;11.35;6.20;;;9.30;99.90;;;;;;5091564;28;20024;-70
2023/03/13 02:49:57;;;;;;;10.73;6.00;;;9.30;99.90;;;;;;5089531;28;20376;-70
2023/03/13 02:52:29;;;;;;;15.02;6.45;;;9.20;99.90;;;;;;5090586;28;20539;-69
2023/03/13 02:55:00;;;;;;;8.32;5.97;;;9.30;99.90;;;;;;5091925;28;20046;-69
2023/03/13 02:57:26;;;;;;;10.45;5.75;;;9.30;99.90;;;;;;5113905;28;20112;-70
2023/03/13 02:59:52;;;;;;;12.82;6.78;;;9.30;99.90;;;;;;5092481;28;20434;-71
2023/03/13 03:02:18;;;;;;;10.90;6.63;;;9.30;99.90;;;;;;5074679;28;20490;-71
2023/03/13 03:04:43;;;;;;;12.70;6.57;;;9.20;99.90;;;;;;5096764;28;20559;-71
2023/03/13 03:07:09;;;;;;;15.07;5.63;;;9.30;99.90;;;;;;5081609;28;20119;-71
2023/03/13 03:09:34;;;;;;;10.77;7.07;;;9.30;99.90;;;;;;5085297;28;20024;-71
2023/03/13 03:12:00;;;;;;;9.05;5.22;;;9.30;99.90;;;;;;5109377;28;20115;-70
2023/03/13 03:14:26;;;;;;;15.82;6.07;;;9.30;99.90;;;;;;5096954;28;20055;-71
2023/03/13 03:16:52;;;;;;;13.95;5.97;;;9.30;99.90;;;;;;5091769;28;20024;-70
2023/03/13 03:19:17;;;;;;;12.43;5.68;;;9.30;99.90;;;;;;5091432;28;20031;-70
2023/03/13 03:21:43;;;;;;;10.63;5.07;;;9.30;99.90;;;;;;5105911;28;20084;-70
2023/03/13 03:24:09;;;;;;;9.43;5.60;;;9.30;99.90;;;;;;5083655;28;20502;-70
2023/03/13 03:26:35;;;;;;;16.67;6.00;;;9.30;99.90;;;;;;5099686;28;20069;-70
2023/03/13 03:29:00;;;;;;;11.70;6.63;;;9.30;99.90;;;;;;5098378;28;20020;-70
2023/03/13 03:31:26;;;;;;;11.65;5.47;;;9.30;99.90;;;;;;5104894;28;20161;-70
2023/03/13 03:33:52;;;;;;;10.55;5.80;;;9.30;99.90;;;;;;5091264;28;20024;-70
2023/03/13 03:36:20;;;;;;;9.77;4.85;;;9.30;99.90;;;;;;5079095;28;20024;-70
2023/03/13 03:38:46;;;;;;;8.55;5.00;;;9.40;99.90;;;;;;5080883;28;20379;-70
2023/03/13 03:41:13;;;;;;;9.02;5.20;;;9.30;99.90;;;;;;5096623;28;20076;-70
2023/03/13 03:43:39;;;;;;;8.40;5.22;;;9.30;99.90;;;;;;5102051;28;20044;-70
2023/03/13 03:46:06;;;;;;;12.73;6.25;;;9.40;99.90;;;;;;5100280;28;20027;-70
2023/03/13 03:48:31;;;;;;;14.85;5.50;;;9.40;99.90;;;;;;5103760;28;20024;-70
2023/03/13 03:50:57;;;;;;;8.35;4.85;;;9.30;99.90;;;;;;5093510;28;20467;-70
2023/03/13 03:53:23;;;;;;;12.98;5.50;;;9.40;99.90;;;;;;5103036;28;20483;-70
2023/03/13 03:55:49;;;;;;;15.05;5.65;;;9.30;99.90;;;;;;5102881;28;20030;-70
2023/03/13 03:58:15;;;;;;;10.68;4.95;;;9.40;99.90;;;;;;5090508;28;20037;-70
2023/03/13 04:00:46;;;;;;;11.82;6.05;;;9.40;99.90;;;;;;5094002;28;20023;-70
2023/03/13 04:03:12;;;;;;;12.25;5.00;;;9.30;99.90;;;;;;5078115;28;20020;-70
2023/03/13 04:05:38;;;;;;;14.73;6.07;;;9.40;99.90;;;;;;5075653;28;20028;-70
2023/03/13 04:08:04;;;;;;;9.65;4.97;;;9.40;99.90;;;;;;5081173;28;20082;-70
2023/03/13 04:10:29;;;;;;;13.43;6.47;;;9.40;99.90;;;;;;5086593;28;20450;-70
2023/03/13 04:12:55;;;;;;;7.43;5.32;;;9.40;99.90;;;;;;5078402;28;20016;-70
2023/03/13 04:15:20;;;;;;;12.05;4.40;;;9.40;99.90;;;;;;5086255;28;20077;-70
2023/03/13 04:17:46;;;;;;;16.77;6.88;;;9.50;99.90;;;;;;5083614;28;20031;-71
2023/03/13 04:20:13;;;;;;;17.48;6.82;;;9.40;99.90;;;;;;5092089;28;20493;-70
2023/03/13 04:22:39;;;;;;;12.88;5.30;;;9.50;99.90;;;;;;5083743;28;20031;-71
2023/03/13 04:25:06;;;;;;;13.73;4.95;;;9.50;99.90;;;;;;5092174;28;20024;-70
2023/03/13 04:27:33;;;;;;;10.77;5.15;;;9.40;99.90;;;;;;5092867;28;20185;-70
2023/03/13 04:29:59;;;;;;;12.27;5.03;;;9.50;99.90;;;;;;5085170;28;20060;-70
2023/03/13 04:32:24;;;;;;;9.98;4.20;;;9.40;99.90;;;;;;5098058;28;20117;-70
2023/03/13 04:34:50;;;;;;;12.23;5.22;;;9.50;99.90;;;;;;5090249;28;20085;-71
2023/03/13 04:37:16;;;;;;;14.10;6.07;;;9.50;99.90;;;;;;5089451;28;20039;-71
2023/03/13 04:39:41;;;;;;;13.32;4.70;;;9.50;99.90;;;;;;5090619;28;20024;-70
2023/03/13 04:42:09;;;;;;;12.55;5.10;;;9.50;99.90;;;;;;5085952;28;20107;-70
2023/03/13 04:44:35;;;;;;;12.68;5.10;;;9.50;99.90;;;;;;5088838;28;20502;-70
2023/03/13 04:47:01;;;;;;;14.82;5.50;;;9.50;99.90;;;;;;5091816;28;20036;-70
2023/03/13 04:49:26;;;;;;;11.55;4.70;;;9.50;99.90;;;;;;5106010;28;20023;-71
2023/03/13 04:51:52;;;;;;;14.65;4.38;;;9.50;99.90;;;;;;5103755;28;20044;-70
2023/03/13 04:54:17;;;;;;;18.20;5.63;;;9.50;99.90;;;;;;5097068;28;20387;-71
2023/03/13 04:56:43;;;;;;;8.73;4.30;;;9.50;99.90;;;;;;5093309;28;20077;-71
2023/03/13 04:59:11;;;;;;;13.23;5.32;;;9.50;99.90;;;;;;5102967;28;20593;-71
2023/03/13 05:01:37;;;;;;;11.25;4.63;;;9.50;99.90;;;;;;5089980;28;20082;-71
2023/03/13 05:04:04;;;;;;;14.35;5.03;;;9.50;99.90;;;;;;5088083;28;20019;-71
2023/03/13 05:06:29;;;;;;;12.32;5.00;;;9.50;99.90;;;;;;5091168;28;20036;-70
2023/03/13 05:08:55;;;;;;;20.15;5.28;;;9.50;99.90;;;;;;5102318;28;20033;-72
2023/03/13 05:11:21;;;;;;;10.60;4.30;;;9.50;99.90;;;;;;5100037;28;20092;-71
2023/03/13 05:13:46;;;;;;;27.63;5.82;;;9.60;99.90;;;;;;5093210;28;20028;-70
2023/03/13 05:16:12;;;;;;;11.13;4.18;;;9.60;99.90;;;;;;5092618;28;20039;-71
2023/03/13 05:18:38;;;;;;;14.05;5.60;;;9.60;99.90;;;;;;5112970;28;20368;-71
2023/03/13 05:21:04;;;;;;;16.25;5.13;;;9.60;99.90;;;;;;5105089;28;20028;-71
2023/03/13 05:23:30;;;;;;;13.55;4.97;;;9.60;99.90;;;;;;5106808;28;20063;-71
2023/03/13 05:25:56;;;;;;;16.00;5.10;;;9.50;99.90;;;;;;5075091;28;20106;-71
2023/03/13 05:28:21;;;;;;;11.95;3.78;;;9.60;99.90;;;;;;5103984;28;20517;-71
2023/03/13 05:30:47;;;;;;;14.00;5.63;;;9.60;99.90;;;;;;5092228;28;20577;-71
2023/03/13 05:33:13;;;;;;;16.70;4.82;;;9.60;99.90;;;;;;5093249;28;20032;-71
2023/03/13 05:35:38;;;;;;;10.65;4.63;;;9.60;99.90;;;;;;5106056;28;20036;-71
2023/03/13 05:38:04;;;;;;;16.20;5.05;;;9.50;99.90;;;;;;5113025;28;20479;-71
2023/03/13 05:40:30;;;;;;;13.18;4.60;;;9.60;99.90;;;;;;5091990;28;20067;-71
2023/03/13 05:42:55;;;;;;;18.27;6.28;;;9.50;99.90;;;;;;5094804;28;20232;-70
2023/03/13 05:45:21;;;;;;;14.77;5.57;;;9.60;99.90;;;;;;5095609;28;20093;-70
2023/03/13 05:47:47;;;;;;;18.27;5.45;;;9.60;99.90;;;;;;5090222;28;20042;-71
2023/03/13 05:50:13;;;;;;;12.90;5.40;;;9.60;99.90;;;;;;5098855;28;20035;-70
2023/03/13 05:52:38;;;;;;;12.05;4.57;;;9.60;99.90;;;;;;5102837;28;20032;-71
2023/03/13 05:55:04;;;;;;;14.35;5.55;;;9.60;99.90;;;;;;5096730;28;20387;-71
2023/03/13 05:57:30;;;;;;;12.00;4.72;;;9.60;99.90;;;;;;5092682;28;20044;-71
2023/03/13 05:59:55;;;;;;;10.93;4.05;;;9.60;99.90;;;;;;5096828;28;20122;-71
2023/03/13 06:02:21;;;;;;;16.33;4.95;;;9.60;99.90;;;;;;5099051;27;20531;-71
2023/03/13 06:04:47;;;;;;;10.65;4.38;;;9.60;99.90;;;;;;5106683;28;20031;-71
2023/03/13 06:07:13;;;;;;;12.30;4.78;;;9.60;99.90;;;;;;5103828;28;20016;-71
2023/03/13 06:09:39;;;;;;;17.52;4.47;;;9.60;99.90;;;;;;5095901;28;20031;-70
2023/03/13 06:12:07;;;;;;;13.55;4.53;;;9.60;99.90;;;;;;5104692;28;20043;-70
2023/03/13 06:14:32;;;;;;;15.80;5.10;;;9.60;99.90;;;;;;5093604;28;20047;-70
2023/03/13 06:16:58;;;;;;;12.30;4.57;;;9.60;99.90;;;;;;5104049;28;20467;-70
2023/03/13 06:19:24;;;;;;;14.88;5.63;;;9.70;99.90;;;;;;5100167;28;20023;-70
2023/03/13 06:21:50;;;;;;;17.30;5.45;;;9.70;99.90;;;;;;5108017;28;20020;-71
2023/03/13 06:24:16;;;;;;;18.40;5.20;;;9.70;99.90;;;;;;5094387;28;20243;-70
2023/03/13 06:26:42;;;;;;;18.83;4.80;;;9.70;99.90;;;;;;5092093;28;20099;-71
2023/03/13 06:29:09;;;;;;;12.13;3.72;;;9.70;99.90;;;;;;5093051;28;20110;-71
2023/03/13 06:31:34;;;;;;;11.18;4.57;;;9.70;99.90;;;;;;5106550;28;20051;-71
2023/03/13 06:34:00;;;;;;;12.32;5.13;;;9.70;99.90;;;;;;5081934;28;20624;-71
2023/03/13 06:36:25;;;;;;;14.05;5.55;;;9.70;99.90;;;;;;5089485;28;20028;-70
2023/03/13 06:38:51;;;;;;;12.52;4.63;;;9.70;99.90;;;;;;5091555;28;20099;-71
2023/03/13 06:41:17;;;;;;;18.58;5.35;;;9.70;99.90;;;;;;5105982;28;20032;-71
2023/03/13 06:43:43;;;;;;;14.07;4.45;;;9.70;99.90;;;;;;5092442;28;20024;-71
2023/03/13 06:46:21;;;;;;;10.90;4.75;;;9.70;99.90;;;;;;5093014;28;20418;-71
2023/03/13 06:48:47;;;;;;;11.27;4.80;;;9.70;99.90;;;;;;5109379;28;20063;-71
2023/03/13 06:51:14;;;;;;;12.85;4.55;;;9.80;99.90;;;;;;5099501;28;20032;-71
2023/03/13 06:53:40;;;;;;;15.73;4.60;;;9.80;99.90;;;;;;5092033;28;20111;-71
2023/03/13 06:56:07;;;;;;;17.75;5.18;;;9.80;99.90;;;;;;5106177;28;20477;-71
2023/03/13 06:58:33;;;;;;;9.52;4.28;;;9.70;99.90;;;;;;5105268;27;20430;-71
2023/03/13 07:01:05;;;;;;;13.05;5.03;;;9.80;99.90;;;;;;5104453;28;20032;-71
2023/03/13 07:03:31;;;;;;;13.25;4.95;;;9.80;99.90;;;;;;5106615;28;20028;-71
2023/03/13 07:05:58;;;;;;;13.57;4.57;;;9.90;99.90;;;;;;5092590;28;20497;-71
2023/03/13 07:08:24;;;;;;;13.18;5.68;;;9.90;99.90;;;;;;5089531;28;20130;-71
2023/03/13 07:10:51;;;;;;;12.80;4.90;;;9.90;99.90;;;;;;5089700;28;20131;-70
2023/03/13 07:13:18;;;;;;;13.18;4.53;;;9.90;99.90;;;;;;5090318;28;20038;-70
2023/03/13 07:15:44;;;;;;;17.45;5.70;;;9.90;99.90;;;;;;5095081;28;20043;-70
2023/03/13 07:18:10;;;;;;;17.40;5.15;;;10.00;99.90;;;;;;5094158;28;20029;-70
2023/03/13 07:20:35;;;;;;;15.23;4.68;;;10.00;99.90;;;;;;5092586;28;20032;-73
2023/03/13 07:23:01;;;;;;;15.07;5.28;;;10.00;99.90;;;;;;5076648;28;20028;-72
2023/03/13 07:25:26;;;;;;;13.65;5.20;;;10.10;99.90;;;;;;5073029;28;20388;-69
2023/03/13 07:27:52;;;;;;;14.52;5.53;;;10.10;99.90;;;;;;5098793;28;20024;-69
2023/03/13 07:30:19;;;;;;;10.30;4.45;;;10.10;99.90;;;;;;5083958;28;20032;-69
2023/03/13 07:32:44;;;;;;;16.52;5.50;;;10.20;99.90;;;;;;5101579;28;20038;-69
2023/03/13 07:35:10;;;;;;;11.75;4.70;;;10.20;99.90;;;;;;5087776;28;20035;-69
2023/03/13 07:37:35;;;;;;;12.88;4.40;;;10.10;99.90;;;;;;5086481;28;20027;-68
2023/03/13 07:40:01;;;;;;;13.82;4.68;;;10.20;99.90;;;;;;5095242;28;20032;-67
2023/03/13 07:42:27;;;;;;;12.40;5.22;;;10.20;99.90;;;;;;5091274;28;20027;-67
2023/03/13 07:44:52;;;;;;;12.55;5.63;;;10.30;99.90;;;;;;5094261;28;20032;-65
2023/03/13 07:47:18;;;;;;;13.70;4.97;;;10.30;99.90;;;;;;5095009;28;20052;-68
2023/03/13 07:49:45;;;;;;;11.88;4.47;;;10.30;99.90;;;;;;5084252;28;20479;-67
2023/03/13 07:52:11;;;;;;;13.45;4.75;;;10.30;99.90;;;;;;5094744;28;20032;-68
2023/03/13 07:54:36;;;;;;;13.68;5.00;;;10.40;99.90;;;;;;5087807;28;20397;-69
2023/03/13 07:57:02;;;;;;;15.27;5.53;;;10.40;99.90;;;;;;5088022;28;20076;-69
2023/03/13 07:59:28;;;;;;;18.38;4.97;;;10.40;99.90;;;;;;5088975;28;20552;-69
2023/03/13 08:01:54;;;;;;;12.35;5.40;;;10.40;99.90;;;;;;5083005;28;20513;-69
2023/03/13 08:04:19;;;;;;;11.80;4.80;;;10.50;99.90;;;;;;5087696;28;20024;-69
2023/03/13 08:06:45;;;;;;;17.75;5.93;;;10.50;99.90;;;;;;5090569;28;20036;-69
2023/03/13 08:09:10;;;;;;;12.40;4.95;;;10.50;99.90;;;;;;5079374;28;20028;-69
2023/03/13 08:11:43;;;;;;;14.77;4.95;;;10.50;99.90;;;;;;5081376;28;20075;-68
2023/03/13 08:14:09;;;;;;;14.40;5.47;;;10.50;99.90;;;;;;5098802;28;20352;-69
2023/03/13 08:16:35;;;;;;;12.18;4.40;;;10.50;99.90;;;;;;5089855;28;20043;-68
2023/03/13 08:19:03;;;;;;;9.98;4.63;;;10.60;99.90;;;;;;5092482;28;20028;-69
2023/03/13 08:21:31;;;;;;;12.15;4.93;;;10.60;99.90;;;;;;5088239;28;20063;-69
2023/03/13 08:24:00;;;;;;;14.65;5.30;;;10.60;99.90;;;;;;5079258;28;20610;-68
2023/03/13 08:26:28;;;;;;;11.10;5.78;;;10.60;99.90;;;;;;5092943;28;20053;-68
2023/03/13 08:28:56;;;;;;;11.23;4.75;;;10.70;99.90;;;;;;5074072;28;20070;-67
2023/03/13 08:31:30;;;;;;;12.25;4.75;;;10.70;99.90;;;;;;5074977;28;20502;-67
2023/03/13 08:33:55;;;;;;;10.37;4.70;;;10.70;99.90;;;;;;5085144;28;20027;-67
2023/03/13 08:36:24;;;;;;;13.88;4.60;;;10.70;99.90;;;;;;5084346;28;20690;-69
2023/03/13 08:38:56;;;;;;;12.98;4.68;;;10.70;99.90;;;;;;5096873;28;20091;-70
2023/03/13 08:41:24;;;;;;;10.80;4.10;;;10.80;99.90;;;;;;5091624;28;20081;-69
2023/03/13 08:43:53;;;;;;;10.10;4.18;;;10.80;99.90;;;;;;5094397;28;20031;-69
2023/03/13 08:46:19;;;;;;;8.90;3.67;;;10.90;99.90;;;;;;5095140;28;20024;-69
2023/03/13 08:48:47;;;;;;;9.57;4.55;;;10.90;99.90;;;;;;5097892;28;20051;-69
2023/03/13 08:51:14;;;;;;;9.10;4.13;;;10.90;99.90;;;;;;5092103;28;20047;-69
2023/03/13 08:53:41;;;;;;;11.18;4.30;;;10.90;99.90;;;;;;5102143;28;20019;-69
2023/03/13 08:56:08;;;;;;;11.02;4.25;;;10.90;99.90;;;;;;5092922;28;20032;-69
2023/03/13 08:58:34;;;;;;;7.90;3.83;;;10.90;99.90;;;;;;5096892;28;20082;-69
2023/03/13 09:01:02;;;;;;;10.50;3.92;;;11.00;99.90;;;;;;5107972;28;20020;-70
2023/03/13 09:03:27;;;;;;;8.80;3.80;;;11.00;99.90;;;;;;5087787;28;20024;-71
2023/03/13 09:05:55;;;;;;;11.30;3.83;;;11.00;99.90;;;;;;5087928;28;20168;-69
2023/03/13 09:08:20;;;;;;;10.80;4.25;;;11.00;99.90;;;;;;5089627;28;20039;-70
2023/03/13 09:10:46;;;;;;;11.07;3.40;;;11.00;99.90;;;;;;5087615;28;20040;-69
2023/03/13 09:13:11;;;;;;;7.93;3.40;;;11.00;99.90;;;;;;5064456;28;20058;-69
2023/03/13 09:15:37;;;;;;;10.95;4.25;;;11.00;99.90;;;;;;5096277;28;20463;-69
2023/03/13 09:18:03;;;;;;;11.13;4.43;;;11.10;99.90;;;;;;5085019;28;20513;-69
2023/03/13 09:20:28;;;;;;;9.85;3.88;;;11.10;99.90;;;;;;5090553;28;20043;-69
2023/03/13 09:22:54;;;;;;;12.15;3.78;;;11.10;99.90;;;;;;5093218;28;20024;-70
2023/03/13 09:25:20;;;;;;;14.57;4.65;;;11.20;99.90;;;;;;5087255;28;20105;-69
2023/03/13 09:27:45;;;;;;;9.65;3.58;;;11.20;99.90;;;;;;5082435;28;20499;-70
2023/03/13 09:30:12;;;;;;;15.02;4.15;;;11.20;99.90;;;;;;5097370;28;20527;-69
2023/03/13 09:32:37;;;;;;;8.60;3.83;;;11.20;99.90;;;;;;5098554;28;20028;-69
2023/03/13 09:35:03;;;;;;;12.23;3.80;;;11.30;99.90;;;;;;5104814;28;20548;-69
2023/03/13 09:37:29;;;;;;;6.60;3.65;;;11.30;99.90;;;;;;5094348;28;20024;-69
2023/03/13 09:39:55;;;;;;;11.05;4.55;;;11.30;99.90;;;;;;5073202;28;20024;-69
2023/03/13 09:42:31;;;;;;;11.30;4.22;;;11.40;99.90;;;;;;5089393;28;20028;-70
2023/03/13 09:45:04;;;;;;;9.75;3.78;;;11.40;99.90;;;;;;5084166;28;20032;-69
2023/03/13 09:47:40;;;;;;;11.50;3.97;;;11.40;99.90;;;;;;5089206;28;20115;-69
2023/03/13 09:50:12;;;;;;;11.65;4.15;;;11.40;99.90;;;;;;5085853;28;20044;-69
2023/03/13 09:52:39;;;;;;;9.77;3.65;;;11.50;99.90;;;;;;5089439;28;20035;-69
2023/03/13 09:55:23;;;;;;;8.43;3.78;;;11.50;99.90;;;;;;5093091;28;20028;-69
2023/03/13 09:58:10;;;;;;;10.18;3.25;;;11.50;99.90;;;;;;5090647;28;20055;-69
2023/03/13 10:00:38;;;;;;;7.22;2.88;;;11.50;99.90;;;;;;5087481;28;20036;-67
2023/03/13 10:03:19;;;;;;;10.50;4.20;;;11.50;99.90;;;;;;5083981;28;20047;-68
2023/03/13 10:05:51;;;;;;;7.05;3.45;;;11.60;99.90;;;;;;5082707;28;20032;-68
2023/03/13 10:08:24;;;;;;;7.35;3.08;;;11.60;99.90;;;;;;5086071;28;20047;-69
2023/03/13 10:11:08;;;;;;;6.80;3.08;;;11.60;99.90;;;;;;5092235;28;20047;-67
2023/03/13 10:13:42;;;;;;;7.00;2.75;;;11.60;99.90;;;;;;5085636;28;20020;-67
2023/03/13 10:16:19;;;;;;;9.45;3.63;;;11.60;99.90;;;;;;5093104;28;20052;-67
2023/03/13 10:18:47;;;;;;;7.55;2.92;;;11.60;99.90;;;;;;5097584;28;20055;-67
2023/03/13 10:21:20;;;;;;;7.65;3.30;;;11.80;99.90;;;;;;5108088;28;20034;-68
2023/03/13 10:24:01;;;;;;;7.05;3.55;;;11.80;99.90;;;;;;5080940;28;20116;-68
2023/03/13 10:26:30;;;;;;;11.80;3.75;;;11.80;99.90;;;;;;5083272;28;20073;-67
2023/03/13 10:29:15;;;;;;;7.68;3.10;;;11.90;99.90;;;;;;5098098;28;20020;-68
2023/03/13 10:31:45;;;;;;;5.97;3.20;;;11.90;99.90;;;;;;5090975;28;20115;-68
2023/03/13 10:34:12;;;;;;;7.53;2.92;;;12.00;99.90;;;;;;5091997;28;20064;-68
2023/03/13 10:36:49;;;;;;;8.00;3.47;;;12.10;99.90;;;;;;5078818;28;20024;-68
2023/03/13 10:39:17;;;;;;;6.78;2.47;;;12.20;99.90;;;;;;5092986;28;20142;-68
2023/03/13 10:41:43;;;;;;;6.00;2.60;;;12.30;99.90;;;;;;5086826;28;20384;-68
2023/03/13 10:44:20;;;;;;;6.40;2.78;;;12.30;99.90;;;;;;5093553;28;20016;-68
2023/03/13 10:46:47;;;;;;;5.15;2.40;;;12.40;99.90;;;;;;5089694;28;20361;-69
2023/03/13 10:49:22;;;;;;;4.35;2.50;;;12.50;99.90;;;;;;5094726;28;20032;-68
2023/03/13 10:51:51;;;;;;;;;;;12.60;99.90;;;;;;5102104;28;20486;-68
2023/03/13 10:54:26;;;;;;;7.03;2.83;;;12.70;99.90;;;;;;5102710;28;19916;-67
2023/03/13 10:57:08;;;;;;;7.85;3.30;;;12.70;99.90;;;;;;5090431;28;20019;-67
2023/03/13 10:59:39;;;;;;;3.67;2.33;;;12.80;99.90;;;;;;5100297;28;20052;-67
2023/03/13 11:02:25;;;;;;;4.93;2.75;;;13.00;99.90;;;;;;5096092;28;20024;-67
2023/03/13 11:04:52;;;;;;;6.25;3.22;;;13.10;99.90;;;;;;5075882;28;20035;-68
2023/03/13 11:07:27;;;;;;;5.35;2.17;;;13.20;99.90;;;;;;5081396;28;20388;-66
2023/03/13 11:10:16;;;;;;;5.45;2.30;;;13.30;99.90;;;;;;5094190;28;20384;-68
2023/03/13 11:12:53;;;;;;;6.63;2.33;;;13.40;99.90;;;;;;5090350;28;20024;-68
2023/03/13 11:15:59;;;;;;;6.00;2.67;;;13.50;99.90;;;;;;5099533;28;20032;-69
2023/03/13 11:18:39;;;;;;;4.93;1.92;;;13.60;99.90;;;;;;5050529;28;20034;-68
2023/03/13 11:21:05;;;;;;;3.97;2.10;;;13.60;99.90;;;;;;5063516;28;20471;-68
2023/03/13 11:23:44;;;;;;;4.90;2.20;;;13.70;99.90;;;;;;5075602;28;20036;-69
2023/03/13 11:26:28;;;;;;;5.35;1.95;;;13.80;99.90;;;;;;5082361;28;21207;-69
2023/03/13 11:29:00;;;;;;;2.22;1.52;;;13.90;99.90;;;;;;5080235;28;20026;-69
2023/03/13 11:31:37;;;;;;;4.30;2.20;;;14.00;99.90;;;;;;5094342;28;20055;-69
2023/03/13 11:34:22;;;;;;;8.23;2.22;;;14.20;99.90;;;;;;5107463;28;20048;-69
2023/03/13 11:37:08;;;;;;;5.85;2.10;;;14.20;99.90;;;;;;5094150;28;20027;-69
2023/03/13 11:39:45;;;;;;;3.10;1.95;;;14.30;99.90;;;;;;5092700;28;20530;-70
2023/03/13 11:42:35;;;;;;;3.92;1.67;;;14.40;99.90;;;;;;5098746;28;20039;-69
2023/03/13 11:45:38;;;;;;;3.30;1.85;;;14.50;99.90;;;;;;5104914;28;20106;-69
2023/03/13 11:48:20;;;;;;;2.88;1.85;;;14.60;99.90;;;;;;5091215;28;20062;-72
2023/03/13 11:51:06;;;;;;;3.65;1.63;;;14.70;99.90;;;;;;5092480;28;20032;-69
2023/03/13 11:53:59;;;;;;;3.15;1.70;;;14.80;99.90;;;;;;5097378;28;20040;-69
2023/03/13 11:56:48;;;;;;;7.32;2.40;;;14.90;99.90;;;;;;5080340;28;20017;-70
2023/03/13 11:59:32;;;;;;;3.33;1.90;;;14.90;99.90;;;;;;5095437;28;20062;-69
2023/03/13 12:02:24;;;;;;;2.83;1.60;;;15.00;99.90;;;;;;5104693;28;20038;-70
2023/03/13 12:04:58;;;;;;;2.40;1.48;;;15.00;99.90;;;;;;5082202;28;20114;-69
2023/03/13 12:07:40;;;;;;;3.33;1.95;;;15.00;99.90;;;;;;5090417;28;20028;-68
2023/03/13 12:10:25;;;;;;;3.35;1.65;;;15.10;99.90;;;;;;5090086;28;20081;-70
2023/03/13 12:13:04;;;;;;;4.07;1.70;;;15.20;99.90;;;;;;5087506;28;20035;-70
2023/03/13 12:15:42;;;;;;;2.72;1.75;;;15.20;99.90;;;;;;5085143;28;20067;-70
2023/03/13 12:18:19;;;;;;;2.47;1.60;;;15.20;99.90;;;;;;5099110;28;20039;-71
2023/03/13 12:20:59;;;;;;;3.28;1.40;;;15.30;99.90;;;;;;5105154;28;20106;-71
2023/03/13 12:24:02;;;;;;;3.03;1.85;;;15.40;99.90;;;;;;5088178;28;20024;-70
2023/03/13 12:26:43;;;;;;;3.28;1.83;;;15.40;99.90;;;;;;5082061;28;20042;-70
2023/03/13 12:29:25;;;;;;;2.78;1.42;;;15.50;99.90;;;;;;5107833;28;20015;-70
2023/03/13 12:32:02;;;;;;;2.03;1.40;;;15.60;99.90;;;;;;5101504;28;20130;-69
2023/03/13 12:34:45;;;;;;;2.10;1.30;;;15.60;99.90;;;;;;5093736;28;20528;-70
2023/03/13 12:37:24;;;;;;;1.40;1.10;;;15.70;99.90;;;;;;5109786;28;20089;-70
2023/03/13 12:40:23;;;;;;;2.40;1.60;;;15.70;99.90;;;;;;5105281;28;20121;-71
2023/03/13 12:43:01;;;;;;;3.58;1.30;;;15.80;99.90;;;;;;5110738;28;20042;-70
2023/03/13 12:45:28;;;;;;;2.33;1.25;;;15.80;99.90;;;;;;5087214;28;20217;-70
2023/03/13 12:48:11;;;;;;;1.83;1.30;;;15.90;99.90;;;;;;5098664;28;20038;-69
2023/03/13 12:50:56;;;;;;;2.17;1.30;;;16.00;99.90;;;;;;5103284;28;20104;-70
2023/03/13 12:53:54;;;;;;;2.20;1.50;;;16.00;99.90;;;;;;5096445;28;20032;-71
2023/03/13 12:56:19;;;;;;;2.17;1.30;;;16.00;99.90;;;;;;5082512;28;20465;-69
2023/03/13 12:58:54;;;;;;;3.38;1.73;;;16.10;99.90;;;;;;5088167;28;20052;-71